createdAt,value
2017-10-08T00:01:54.174Z,82.53
2017-10-08T00:04:19.915Z,82.32
2017-10-08T00:06:45.702Z,82.63
2017-10-08T00:09:11.465Z,83.09
2017-10-08T00:11:37.212Z,82.94
2017-10-08T00:14:02.988Z,82.50
2017-10-08T00:16:32.774Z,82.04
2017-10-08T00:18:58.521Z,82.35
2017-10-08T00:21:24.263Z,82.73
2017-10-08T00:23:50.044Z,82.30
2017-10-08T00:26:15.807Z,82.52
2017-10-08T00:28:41.555Z,82.91
2017-10-08T00:31:07.327Z,82.31
2017-10-08T00:33:33.070Z,82.36
2017-10-08T00:35:58.862Z,82.68
2017-10-08T00:38:24.607Z,82.52
2017-10-08T00:40:50.358Z,83.05
2017-10-08T00:43:16.148Z,83.07
2017-10-08T00:45:41.894Z,82.89
2017-10-08T00:48:07.711Z,83.04
2017-10-08T00:50:33.455Z,82.81
2017-10-08T00:53:00.831Z,82.56
2017-10-08T00:57:53.807Z,82.94
2017-10-08T01:00:19.622Z,82.70
2017-10-08T01:02:45.394Z,83.16
2017-10-08T01:05:11.137Z,82.98
2017-10-08T01:07:36.889Z,83.55
2017-10-08T01:10:02.657Z,83.26
2017-10-08T01:12:28.398Z,83.55
2017-10-08T01:14:54.171Z,83.51
2017-10-08T01:17:19.942Z,83.50
2017-10-08T01:19:45.691Z,83.55
2017-10-08T01:22:11.491Z,83.86
2017-10-08T01:24:37.251Z,83.93
2017-10-08T01:27:03.096Z,83.75
2017-10-08T01:29:28.884Z,84.03
2017-10-08T01:31:54.679Z,84.44
2017-10-08T01:34:20.427Z,83.98
2017-10-08T01:36:46.202Z,84.44
2017-10-08T01:39:11.980Z,84.29
2017-10-08T01:41:37.727Z,84.25
2017-10-08T01:44:03.482Z,84.42
2017-10-08T01:46:29.262Z,84.60
2017-10-08T01:48:55.131Z,84.90
2017-10-08T01:51:20.883Z,84.84
2017-10-08T01:53:46.654Z,84.93
2017-10-08T01:56:12.406Z,85.39
2017-10-08T01:58:38.183Z,85.53
2017-10-08T02:01:03.934Z,85.46
2017-10-08T02:03:29.731Z,85.74
2017-10-08T02:05:55.487Z,85.53
2017-10-08T02:08:21.255Z,85.72
2017-10-08T02:10:47.047Z,85.76
2017-10-08T02:13:12.803Z,85.99
2017-10-08T02:15:38.554Z,85.68
2017-10-08T02:18:04.903Z,85.85
2017-10-08T02:20:30.693Z,85.66
2017-10-08T02:22:56.439Z,85.98
2017-10-08T02:25:22.222Z,86.24
2017-10-08T02:27:47.954Z,86.22
2017-10-08T02:30:13.704Z,85.62
2017-10-08T02:32:39.482Z,85.68
2017-10-08T02:35:05.946Z,84.94
2017-10-08T02:37:31.723Z,84.99
2017-10-08T02:39:57.506Z,84.95
2017-10-08T02:42:23.252Z,85.01
2017-10-08T02:44:49.004Z,84.82
2017-10-08T02:47:14.771Z,84.74
2017-10-08T02:49:40.535Z,84.74
2017-10-08T02:52:06.340Z,84.32
2017-10-08T02:54:32.099Z,84.01
2017-10-08T02:56:57.842Z,84.24
2017-10-08T02:59:23.635Z,84.35
2017-10-08T03:01:49.366Z,84.22
2017-10-08T03:04:15.114Z,84.69
2017-10-08T03:06:40.899Z,85.02
2017-10-08T03:09:06.642Z,85.21
2017-10-08T03:11:32.393Z,85.69
2017-10-08T03:13:58.162Z,85.38
2017-10-08T03:16:23.922Z,85.59
2017-10-08T03:18:49.684Z,86.28
2017-10-08T03:21:15.431Z,86.77
2017-10-08T03:23:41.223Z,87.19
2017-10-08T03:26:06.962Z,87.62
2017-10-08T03:28:32.719Z,87.92
2017-10-08T03:30:58.504Z,88.11
2017-10-08T03:33:24.255Z,88.38
2017-10-08T03:35:50.012Z,88.99
2017-10-08T03:38:15.775Z,89.55
2017-10-08T03:40:41.570Z,89.59
2017-10-08T03:43:07.310Z,89.39
2017-10-08T03:45:33.094Z,89.59
2017-10-08T03:47:58.878Z,89.49
2017-10-08T03:50:24.631Z,89.45
2017-10-08T03:52:50.379Z,88.93
2017-10-08T03:55:16.147Z,88.84
2017-10-08T03:57:41.886Z,89.33
2017-10-08T04:00:07.677Z,89.15
2017-10-08T04:02:33.423Z,89.13
2017-10-08T04:04:59.171Z,89.82
2017-10-08T04:07:24.939Z,89.79
2017-10-08T04:09:50.696Z,89.95
2017-10-08T04:12:16.435Z,89.89
2017-10-08T04:14:42.226Z,89.91
2017-10-08T04:17:07.962Z,90.27
2017-10-08T04:19:33.727Z,90.42
2017-10-08T04:21:59.495Z,90.23
2017-10-08T04:24:25.230Z,90.68
2017-10-08T04:26:50.976Z,90.72
2017-10-08T04:29:16.750Z,90.62
2017-10-08T04:31:42.486Z,90.30
2017-10-08T04:34:08.271Z,90.42
2017-10-08T04:36:34.029Z,90.58
2017-10-08T04:38:59.770Z,90.32
2017-10-08T04:41:25.565Z,90.52
2017-10-08T04:43:51.311Z,90.67
2017-10-08T04:46:17.087Z,90.66
2017-10-08T04:48:42.829Z,91.20
2017-10-08T04:51:08.606Z,91.30
2017-10-08T04:53:34.384Z,91.57
2017-10-08T04:56:00.154Z,91.50
2017-10-08T04:58:25.907Z,91.59
2017-10-08T05:00:51.647Z,91.77
2017-10-08T05:03:17.419Z,91.41
2017-10-08T05:05:43.162Z,91.60
2017-10-08T05:08:08.939Z,91.55
2017-10-08T05:10:34.728Z,91.56
2017-10-08T05:13:00.475Z,92.02
2017-10-08T05:15:26.267Z,92.27
2017-10-08T05:17:52.027Z,92.33
2017-10-08T05:20:17.801Z,92.23
2017-10-08T05:22:43.575Z,92.45
2017-10-08T05:25:09.333Z,92.42
2017-10-08T05:27:35.114Z,92.55
2017-10-08T05:30:00.855Z,92.41
2017-10-08T05:32:26.595Z,92.23
2017-10-08T05:34:52.379Z,91.92
2017-10-08T05:37:18.155Z,91.79
2017-10-08T05:39:43.910Z,91.99
2017-10-08T05:42:09.715Z,91.69
2017-10-08T05:44:35.468Z,91.85
2017-10-08T05:47:01.212Z,91.95
2017-10-08T05:49:26.994Z,91.97
2017-10-08T05:51:52.751Z,92.01
2017-10-08T05:54:18.530Z,91.93
2017-10-08T05:56:44.278Z,91.98
2017-10-08T05:59:10.046Z,92.06
2017-10-08T06:01:35.815Z,92.03
2017-10-08T06:04:01.562Z,91.82
2017-10-08T06:06:27.351Z,91.45
2017-10-08T06:08:53.091Z,91.54
2017-10-08T06:11:18.867Z,91.45
2017-10-08T06:13:44.634Z,91.71
2017-10-08T06:16:10.376Z,91.81
2017-10-08T06:18:36.142Z,91.93
2017-10-08T06:21:01.910Z,91.71
2017-10-08T06:23:27.649Z,91.78
2017-10-08T06:25:53.438Z,91.93
2017-10-08T06:28:19.208Z,92.17
2017-10-08T06:30:44.952Z,91.83
2017-10-08T06:33:10.723Z,91.83
2017-10-08T06:35:36.475Z,92.18
2017-10-08T06:38:02.255Z,91.78
2017-10-08T06:40:28.011Z,91.52
2017-10-08T06:42:53.839Z,91.44
2017-10-08T06:45:19.597Z,91.61
2017-10-08T06:47:45.342Z,91.33
2017-10-08T06:50:11.198Z,91.51
2017-10-08T06:52:36.943Z,91.04
2017-10-08T06:55:02.701Z,90.85
2017-10-08T06:57:28.474Z,90.64
2017-10-08T06:59:54.307Z,91.09
2017-10-08T07:02:20.066Z,91.27
2017-10-08T07:04:45.842Z,91.25
2017-10-08T07:07:11.614Z,91.48
2017-10-08T07:09:37.412Z,91.01
2017-10-08T07:12:03.171Z,91.17
2017-10-08T07:14:29.015Z,91.02
2017-10-08T07:16:54.770Z,90.73
2017-10-08T07:19:20.547Z,91.13
2017-10-08T07:21:46.492Z,91.49
2017-10-08T07:24:12.620Z,91.40
2017-10-08T07:26:38.382Z,91.06
2017-10-08T07:29:04.130Z,90.36
2017-10-08T07:31:29.919Z,89.71
2017-10-08T07:33:55.655Z,90.09
2017-10-08T07:36:21.402Z,89.83
2017-10-08T07:38:47.267Z,90.06
2017-10-08T07:41:13.084Z,89.51
2017-10-08T07:43:38.863Z,90.14
2017-10-08T07:46:04.615Z,90.41
2017-10-08T07:48:30.415Z,89.99
2017-10-08T07:50:56.163Z,90.00
2017-10-08T07:53:21.920Z,90.66
2017-10-08T07:55:47.709Z,90.36
2017-10-08T07:58:13.486Z,89.22
2017-10-08T08:00:39.288Z,89.63
2017-10-08T08:03:05.054Z,90.00
2017-10-08T08:05:30.846Z,90.31
2017-10-08T08:07:56.591Z,90.36
2017-10-08T08:10:22.374Z,89.90
2017-10-08T08:12:48.111Z,89.68
2017-10-08T08:15:13.897Z,89.03
2017-10-08T08:17:39.635Z,89.29
2017-10-08T08:20:05.425Z,88.67
2017-10-08T08:22:31.162Z,88.62
2017-10-08T08:24:56.962Z,88.08
2017-10-08T08:27:22.799Z,87.90
2017-10-08T08:29:48.615Z,87.31
2017-10-08T08:32:14.458Z,87.48
2017-10-08T08:34:40.202Z,87.20
2017-10-08T08:37:05.951Z,87.25
2017-10-08T08:39:31.810Z,86.52
2017-10-08T08:41:57.846Z,86.67
2017-10-08T08:44:23.633Z,86.82
2017-10-08T08:46:49.395Z,85.72
2017-10-08T08:49:15.194Z,85.64
2017-10-08T08:51:40.968Z,86.29
2017-10-08T08:54:06.780Z,86.89
2017-10-08T08:56:32.530Z,86.64
2017-10-08T08:58:58.286Z,86.69
2017-10-08T09:01:24.075Z,87.33
2017-10-08T09:03:49.856Z,86.73
2017-10-08T09:06:15.590Z,87.51
2017-10-08T09:08:41.383Z,87.27
2017-10-08T09:11:07.222Z,86.94
2017-10-08T09:13:32.983Z,86.51
2017-10-08T09:15:58.764Z,86.47
2017-10-08T09:18:24.603Z,85.65
2017-10-08T09:20:50.411Z,85.52
2017-10-08T09:23:16.226Z,84.94
2017-10-08T09:25:42.106Z,84.97
2017-10-08T09:28:07.907Z,84.88
2017-10-08T09:30:33.731Z,83.90
2017-10-08T09:32:59.577Z,84.59
2017-10-08T09:35:25.315Z,82.99
2017-10-08T09:37:51.067Z,78.75
2017-10-08T09:40:16.848Z,74.82
2017-10-08T09:42:42.586Z,74.84
2017-10-08T09:45:08.346Z,76.98
2017-10-08T09:47:34.158Z,77.14
2017-10-08T09:50:00.042Z,77.86
2017-10-08T09:52:25.799Z,78.09
2017-10-08T09:54:51.655Z,79.04
2017-10-08T09:57:17.573Z,80.26
2017-10-08T09:59:43.991Z,75.04
2017-10-08T10:02:10.344Z,71.70
2017-10-08T10:04:36.920Z,69.99
2017-10-08T10:07:03.259Z,68.20
2017-10-08T10:09:30.012Z,68.16
2017-10-08T10:11:56.588Z,70.44
2017-10-08T10:14:22.720Z,73.64
2017-10-08T10:16:48.902Z,74.28
2017-10-08T10:19:15.166Z,75.75
2017-10-08T10:21:41.737Z,74.28
2017-10-08T10:24:07.858Z,76.62
2017-10-08T10:26:34.443Z,77.77
2017-10-08T10:29:00.726Z,75.82
2017-10-08T10:31:26.946Z,76.88
2017-10-08T10:33:53.189Z,75.83
2017-10-08T10:36:18.986Z,73.78
2017-10-08T10:38:44.763Z,73.52
2017-10-08T10:41:10.502Z,74.12
2017-10-08T10:43:36.339Z,72.94
2017-10-08T10:46:02.225Z,70.40
2017-10-08T10:48:28.022Z,67.48
2017-10-08T10:50:53.834Z,69.12
2017-10-08T10:53:19.666Z,70.33
2017-10-08T10:55:45.524Z,70.00
2017-10-08T10:58:11.295Z,71.66
2017-10-08T11:00:37.115Z,72.81
2017-10-08T11:03:02.955Z,74.77
2017-10-08T11:05:28.771Z,75.50
2017-10-08T11:07:54.554Z,77.42
2017-10-08T11:10:20.339Z,76.07
2017-10-08T11:12:46.087Z,76.59
2017-10-08T11:15:11.921Z,76.72
2017-10-08T11:17:37.839Z,75.96
2017-10-08T11:20:03.582Z,76.31
2017-10-08T11:22:29.333Z,76.45
2017-10-08T11:24:55.166Z,75.97
2017-10-08T11:27:20.921Z,75.05
2017-10-08T11:29:46.695Z,75.44
2017-10-08T11:32:12.434Z,74.73
2017-10-08T11:34:38.198Z,74.85
2017-10-08T11:37:03.987Z,74.92
2017-10-08T11:39:29.742Z,73.37
2017-10-08T11:41:55.483Z,72.90
2017-10-08T11:44:21.248Z,72.01
2017-10-08T11:46:47.438Z,70.48
2017-10-08T11:49:13.215Z,71.72
2017-10-08T11:51:38.959Z,72.25
2017-10-08T11:54:04.782Z,71.72
2017-10-08T11:56:30.527Z,71.70
2017-10-08T11:58:56.278Z,72.05
2017-10-08T12:01:22.075Z,72.19
2017-10-08T12:03:47.812Z,72.51
2017-10-08T12:06:13.599Z,72.35
2017-10-08T12:08:39.384Z,71.85
2017-10-08T12:11:05.138Z,72.39
2017-10-08T12:13:30.894Z,74.30
2017-10-08T12:15:56.707Z,74.53
2017-10-08T12:18:22.472Z,74.46
2017-10-08T12:20:48.243Z,75.65
2017-10-08T12:23:14.015Z,76.99
2017-10-08T12:25:39.763Z,77.75
2017-10-08T12:28:05.541Z,79.03
2017-10-08T12:30:31.339Z,81.35
2017-10-08T12:32:57.081Z,81.78
2017-10-08T12:35:22.836Z,82.39
2017-10-08T12:37:48.603Z,83.56
2017-10-08T12:40:14.347Z,81.82
2017-10-08T12:42:40.158Z,80.64
2017-10-08T12:45:05.907Z,80.38
2017-10-08T12:47:31.652Z,79.49
2017-10-08T12:49:57.447Z,76.91
2017-10-08T12:52:23.203Z,76.67
2017-10-08T12:54:48.982Z,75.87
2017-10-08T12:57:14.734Z,75.09
2017-10-08T12:59:40.474Z,74.64
2017-10-08T13:02:06.255Z,74.76
2017-10-08T13:04:31.995Z,73.94
2017-10-08T13:06:57.790Z,74.23
2017-10-08T13:09:23.564Z,74.22
2017-10-08T13:11:49.323Z,73.64
2017-10-08T13:14:15.099Z,71.45
2017-10-08T13:16:40.867Z,71.36
2017-10-08T13:19:06.646Z,71.68
2017-10-08T13:21:32.386Z,72.50
2017-10-08T13:23:58.134Z,73.11
2017-10-08T13:26:23.909Z,72.64
2017-10-08T13:28:49.657Z,72.64
2017-10-08T13:31:15.427Z,72.72
2017-10-08T13:33:41.163Z,72.16
2017-10-08T13:36:06.942Z,72.68
2017-10-08T13:38:32.684Z,71.96
2017-10-08T13:40:58.479Z,72.23
2017-10-08T13:43:24.237Z,71.71
2017-10-08T13:45:49.975Z,72.52
2017-10-08T13:48:15.754Z,72.04
2017-10-08T13:50:41.557Z,70.68
2017-10-08T13:53:07.298Z,71.56
2017-10-08T13:55:33.079Z,71.60
2017-10-08T13:57:58.819Z,72.63
2017-10-08T14:00:24.591Z,71.21
2017-10-08T14:02:50.365Z,70.97
2017-10-08T14:05:16.151Z,71.96
2017-10-08T14:07:41.934Z,72.32
2017-10-08T14:10:07.706Z,71.81
2017-10-08T14:12:33.478Z,71.56
2017-10-08T14:14:59.250Z,72.54
2017-10-08T14:17:25.658Z,73.24
2017-10-08T14:19:51.406Z,73.41
2017-10-08T14:22:17.186Z,72.23
2017-10-08T14:24:42.955Z,73.25
2017-10-08T14:27:08.735Z,73.40
2017-10-08T14:29:34.485Z,73.53
2017-10-08T14:32:00.227Z,73.88
2017-10-08T14:34:26.035Z,73.94
2017-10-08T14:36:51.795Z,73.97
2017-10-08T14:39:17.558Z,73.45
2017-10-08T14:41:43.343Z,73.59
2017-10-08T14:44:09.102Z,74.07
2017-10-08T14:46:34.898Z,73.72
2017-10-08T14:49:00.667Z,73.47
2017-10-08T14:51:26.413Z,73.72
2017-10-08T14:53:52.201Z,73.81
2017-10-08T14:56:17.950Z,73.44
2017-10-08T14:58:43.698Z,73.15
2017-10-08T15:01:09.495Z,72.86
2017-10-08T15:03:35.270Z,72.52
2017-10-08T15:06:01.063Z,73.13
2017-10-08T15:08:26.843Z,72.57
2017-10-08T15:10:52.579Z,73.19
2017-10-08T15:13:18.373Z,73.93
2017-10-08T15:15:44.142Z,72.82
2017-10-08T15:18:09.956Z,73.74
2017-10-08T15:20:35.735Z,74.06
2017-10-08T15:23:01.481Z,73.76
2017-10-08T15:25:27.295Z,73.43
2017-10-08T15:27:53.061Z,73.75
2017-10-08T15:30:18.827Z,75.10
2017-10-08T15:32:44.595Z,74.72
2017-10-08T15:35:10.397Z,74.96
2017-10-08T15:37:36.142Z,75.45
2017-10-08T15:40:01.904Z,74.98
2017-10-08T15:42:27.679Z,75.14
2017-10-08T15:44:53.430Z,75.08
2017-10-08T15:47:19.214Z,74.83
2017-10-08T15:49:45.623Z,75.08
2017-10-08T15:52:12.225Z,75.10
2017-10-08T15:54:38.094Z,74.89
2017-10-08T15:57:03.898Z,74.97
2017-10-08T15:59:29.692Z,75.05
2017-10-08T16:01:55.434Z,75.41
2017-10-08T16:04:21.198Z,75.07
2017-10-08T16:06:47.745Z,74.50
2017-10-08T16:09:13.500Z,74.89
2017-10-08T16:11:39.289Z,74.52
2017-10-08T16:14:05.059Z,74.45
2017-10-08T16:16:30.798Z,74.26
2017-10-08T16:18:56.582Z,72.45
2017-10-08T16:21:22.359Z,73.18
2017-10-08T16:23:48.103Z,73.89
2017-10-08T16:26:13.858Z,74.23
2017-10-08T16:28:39.632Z,73.88
2017-10-08T16:31:05.398Z,74.40
2017-10-08T16:33:31.171Z,75.16
2017-10-08T16:35:56.914Z,74.98
2017-10-08T16:38:22.731Z,75.11
2017-10-08T16:40:48.475Z,75.04
2017-10-08T16:43:14.252Z,75.79
2017-10-08T16:45:40.003Z,75.73
2017-10-08T16:48:05.779Z,75.82
2017-10-08T16:50:31.559Z,76.01
2017-10-08T16:52:57.298Z,76.02
2017-10-08T16:55:23.075Z,76.45
2017-10-08T16:57:48.856Z,76.62
2017-10-08T17:00:14.596Z,76.52
2017-10-08T17:02:40.371Z,76.81
2017-10-08T17:05:06.144Z,76.81
2017-10-08T17:07:31.885Z,76.95
2017-10-08T17:09:57.647Z,77.27
2017-10-08T17:12:23.426Z,77.20
2017-10-08T17:14:49.181Z,77.42
2017-10-08T17:17:14.952Z,77.57
2017-10-08T17:19:40.751Z,77.94
2017-10-08T17:22:06.514Z,77.57
2017-10-08T17:24:32.276Z,78.02
2017-10-08T17:26:58.018Z,78.44
2017-10-08T17:29:23.795Z,78.45
2017-10-08T17:31:49.550Z,78.85
2017-10-08T17:34:15.346Z,79.13
2017-10-08T17:36:41.104Z,79.07
2017-10-08T17:39:06.879Z,79.11
2017-10-08T17:41:32.667Z,79.09
2017-10-08T17:43:58.444Z,79.11
2017-10-08T17:46:24.285Z,79.09
2017-10-08T17:48:50.050Z,79.29
2017-10-08T17:51:15.796Z,79.28
2017-10-08T17:53:41.574Z,79.58
2017-10-08T17:56:07.342Z,79.00
2017-10-08T17:58:33.101Z,78.71
2017-10-08T18:00:58.872Z,79.03
2017-10-08T18:03:24.659Z,78.76
2017-10-08T18:05:50.423Z,78.64
2017-10-08T18:08:16.185Z,79.15
2017-10-08T18:10:41.974Z,79.13
2017-10-08T18:13:07.735Z,79.12
2017-10-08T18:15:33.546Z,79.03
2017-10-08T18:17:59.861Z,79.39
2017-10-08T18:20:25.649Z,79.49
2017-10-08T18:22:51.456Z,79.25
2017-10-08T18:25:17.211Z,79.71
2017-10-08T18:27:42.963Z,79.71
2017-10-08T18:30:08.727Z,79.84
2017-10-08T18:32:34.466Z,79.89
2017-10-08T18:35:00.235Z,79.82
2017-10-08T18:37:26.002Z,79.84
2017-10-08T18:39:51.755Z,79.62
2017-10-08T18:42:17.533Z,79.66
2017-10-08T18:44:43.277Z,79.85
2017-10-08T18:47:09.050Z,80.05
2017-10-08T18:49:34.806Z,79.95
2017-10-08T18:52:00.616Z,80.37
2017-10-08T18:54:26.374Z,80.44
2017-10-08T18:56:52.115Z,80.57
2017-10-08T18:59:17.900Z,80.62
2017-10-08T19:01:43.648Z,80.45
2017-10-08T19:04:09.387Z,80.36
2017-10-08T19:06:35.165Z,80.66
2017-10-08T19:09:00.907Z,80.63
2017-10-08T19:11:26.704Z,80.43
2017-10-08T19:13:52.459Z,80.39
2017-10-08T19:16:18.199Z,80.59
2017-10-08T19:18:43.965Z,80.71
2017-10-08T19:21:09.703Z,80.66
2017-10-08T19:23:35.479Z,80.27
2017-10-08T19:26:01.215Z,80.27
2017-10-08T19:28:27.013Z,80.29
2017-10-08T19:30:52.775Z,80.34
2017-10-08T19:33:18.532Z,80.10
2017-10-08T19:35:44.318Z,80.38
2017-10-08T19:38:10.071Z,80.30
2017-10-08T19:40:35.817Z,80.17
2017-10-08T19:43:01.594Z,80.32
2017-10-08T19:45:27.334Z,80.46
2017-10-08T19:47:53.090Z,80.61
2017-10-08T19:50:18.862Z,80.44
2017-10-08T19:52:44.623Z,80.59
2017-10-08T19:55:10.403Z,80.55
2017-10-08T19:57:36.138Z,80.90
2017-10-08T20:00:01.921Z,80.93
2017-10-08T20:02:27.706Z,80.98
2017-10-08T20:04:53.441Z,81.10
2017-10-08T20:07:19.196Z,81.41
2017-10-08T20:09:44.978Z,81.78
2017-10-08T20:12:10.751Z,82.14
2017-10-08T20:14:36.563Z,82.42
2017-10-08T20:17:02.312Z,82.72
2017-10-08T20:19:28.095Z,82.87
2017-10-08T20:21:53.839Z,82.96
2017-10-08T20:24:19.580Z,82.94
2017-10-08T20:26:45.365Z,83.09
2017-10-08T20:29:11.126Z,83.04
2017-10-08T20:31:36.919Z,82.97
2017-10-08T20:34:02.686Z,83.25
2017-10-08T20:36:28.426Z,83.28
2017-10-08T20:38:54.223Z,83.04
2017-10-08T20:41:19.962Z,83.31
2017-10-08T20:43:45.714Z,83.28
2017-10-08T20:46:11.483Z,83.27
2017-10-08T20:48:37.246Z,83.40
2017-10-08T20:51:03.012Z,83.35
2017-10-08T20:53:28.779Z,83.32
2017-10-08T20:55:54.519Z,83.19
2017-10-08T20:58:20.292Z,83.39
2017-10-08T21:00:46.053Z,83.09
2017-10-08T21:03:11.823Z,82.66
2017-10-08T21:05:37.579Z,82.57
2017-10-08T21:08:03.350Z,82.50
2017-10-08T21:10:29.180Z,82.44
2017-10-08T21:12:54.935Z,82.66
2017-10-08T21:15:20.695Z,82.60
2017-10-08T21:17:46.462Z,82.68
2017-10-08T21:20:12.205Z,82.89
2017-10-08T21:22:37.987Z,83.06
2017-10-08T21:25:03.751Z,83.21
2017-10-08T21:27:29.486Z,83.33
2017-10-08T21:29:55.258Z,83.56
2017-10-08T21:32:20.995Z,83.57
2017-10-08T21:34:46.795Z,83.69
2017-10-08T21:37:12.526Z,84.11
2017-10-08T21:39:38.293Z,84.30
2017-10-08T21:42:04.074Z,84.40
2017-10-08T21:44:29.830Z,84.25
2017-10-08T21:46:55.570Z,84.11
2017-10-08T21:49:21.350Z,84.01
2017-10-08T21:51:47.108Z,84.17
2017-10-08T21:54:12.851Z,84.40
2017-10-08T21:56:38.648Z,84.47
2017-10-08T21:59:04.415Z,84.43
2017-10-08T22:01:30.182Z,84.65
2017-10-08T22:03:55.912Z,84.85
2017-10-08T22:06:21.704Z,84.79
2017-10-08T22:08:47.470Z,84.96
2017-10-08T22:11:13.266Z,84.98
2017-10-08T22:13:39.055Z,85.06
2017-10-08T22:16:04.803Z,85.11
2017-10-08T22:18:30.563Z,85.14
2017-10-08T22:20:56.375Z,85.31
2017-10-08T22:23:22.135Z,85.26
2017-10-08T22:25:47.874Z,85.11
2017-10-08T22:28:13.651Z,84.87
2017-10-08T22:30:40.167Z,84.57
2017-10-08T22:33:05.910Z,84.49
2017-10-08T22:35:31.686Z,84.27
2017-10-08T22:37:57.451Z,84.27
2017-10-08T22:40:23.192Z,84.30
2017-10-08T22:42:49.487Z,84.05
2017-10-08T22:45:15.235Z,84.22
2017-10-08T22:47:41.011Z,84.21
2017-10-08T22:50:06.798Z,84.50
2017-10-08T22:52:32.534Z,84.51
2017-10-08T22:54:58.345Z,84.46
2017-10-08T22:57:24.086Z,84.48
2017-10-08T22:59:49.862Z,84.43
2017-10-08T23:02:15.639Z,84.42
2017-10-08T23:04:41.427Z,84.34
2017-10-08T23:07:07.182Z,84.30
2017-10-08T23:09:32.925Z,84.10
2017-10-08T23:11:58.714Z,83.94
2017-10-08T23:14:24.498Z,84.11
2017-10-08T23:16:50.235Z,84.14
2017-10-08T23:19:15.987Z,84.00
2017-10-08T23:21:41.759Z,83.87
2017-10-08T23:24:07.511Z,83.94
2017-10-08T23:26:33.255Z,83.93
2017-10-08T23:28:59.043Z,83.89
2017-10-08T23:31:24.804Z,83.85
2017-10-08T23:33:50.542Z,83.68
2017-10-08T23:36:16.339Z,83.75
2017-10-08T23:38:42.079Z,83.91
2017-10-08T23:41:07.828Z,83.96
2017-10-08T23:43:33.615Z,83.72
2017-10-08T23:45:59.366Z,83.76
2017-10-08T23:48:25.101Z,83.82
2017-10-08T23:50:50.891Z,84.14
2017-10-08T23:53:16.637Z,84.33
2017-10-08T23:55:42.419Z,84.39
2017-10-08T23:58:08.159Z,84.69
